Las Coloradas, Argentina
Current Conditions -  °F | °C
As of 8:00 PM on Saturday 20 Dec 2014 (Local Time) from SAZS Reporting Station
Scattered Clouds Scattered Clouds  
Wind Chill: 39°   Ceiling: Unl
Heat Index: 46°   Visibility: 6mi
Dew Point: 30°   Wind: 20mph
Humidity: 53%   Direction: 320°NW
Pressure: 29.94"   Gusts: NA
Location:  39.55°S, 70.58°W
Report Text: SAZS 202300Z 32017KT 9999 SCT030 FEW040 08/M01 Q1014
Loading
Personal Weather Stations






























Interactive Weather Map New forecast layout! Learn more

10-Day Weather Forecast

Advertisements
Track Severe Weather on mobile